sensor_id;sensor_type;location;lat;lon;timestamp;temperature;humidity
3699;DHT22;1865;50.918;7.092;2022-10-10T00:02:19;12.00;53.20
3699;DHT22;1865;50.918;7.092;2022-10-10T00:04:46;12.00;52.90
3699;DHT22;1865;50.918;7.092;2022-10-10T00:07:18;11.90;52.70
3699;DHT22;1865;50.918;7.092;2022-10-10T00:09:45;11.90;53.90
3699;DHT22;1865;50.918;7.092;2022-10-10T00:12:11;11.90;53.20
3699;DHT22;1865;50.918;7.092;2022-10-10T00:14:38;11.90;53.50
3699;DHT22;1865;50.918;7.092;2022-10-10T00:17:03;11.90;53.30
3699;DHT22;1865;50.918;7.092;2022-10-10T00:19:29;11.90;53.40
3699;DHT22;1865;50.918;7.092;2022-10-10T00:21:55;11.90;53.20
3699;DHT22;1865;50.918;7.092;2022-10-10T00:24:21;11.90;53.10
3699;DHT22;1865;50.918;7.092;2022-10-10T00:26:47;11.90;52.80
3699;DHT22;1865;50.918;7.092;2022-10-10T00:29:12;11.90;52.90
3699;DHT22;1865;50.918;7.092;2022-10-10T00:31:38;11.80;53.00
3699;DHT22;1865;50.918;7.092;2022-10-10T00:34:04;11.80;53.30
3699;DHT22;1865;50.918;7.092;2022-10-10T00:36:32;11.80;53.00
3699;DHT22;1865;50.918;7.092;2022-10-10T00:38:58;11.80;53.40
3699;DHT22;1865;50.918;7.092;2022-10-10T00:41:23;11.80;53.30
3699;DHT22;1865;50.918;7.092;2022-10-10T00:44:12;11.80;53.40
3699;DHT22;1865;50.918;7.092;2022-10-10T00:46:38;11.90;53.00
3699;DHT22;1865;50.918;7.092;2022-10-10T00:49:10;11.90;52.90
3699;DHT22;1865;50.918;7.092;2022-10-10T00:51:38;11.90;52.80
3699;DHT22;1865;50.918;7.092;2022-10-10T00:54:09;11.80;53.00
3699;DHT22;1865;50.918;7.092;2022-10-10T00:56:43;11.80;53.00
3699;DHT22;1865;50.918;7.092;2022-10-10T00:59:11;11.80;52.90
3699;DHT22;1865;50.918;7.092;2022-10-10T01:01:38;11.80;53.00
3699;DHT22;1865;50.918;7.092;2022-10-10T01:04:04;11.70;53.10
3699;DHT22;1865;50.918;7.092;2022-10-10T01:06:32;11.80;53.10
3699;DHT22;1865;50.918;7.092;2022-10-10T01:08:58;11.70;53.00
3699;DHT22;1865;50.918;7.092;2022-10-10T01:11:44;11.70;53.10
3699;DHT22;1865;50.918;7.092;2022-10-10T01:17:05;11.70;52.80
3699;DHT22;1865;50.918;7.092;2022-10-10T01:19:59;11.70;53.20
3699;DHT22;1865;50.918;7.092;2022-10-10T01:28:00;11.70;53.30
3699;DHT22;1865;50.918;7.092;2022-10-10T01:30:28;11.80;53.30
3699;DHT22;1865;50.918;7.092;2022-10-10T01:33:19;11.70;53.30
3699;DHT22;1865;50.918;7.092;2022-10-10T01:36:01;11.70;53.50
3699;DHT22;1865;50.918;7.092;2022-10-10T01:38:42;11.70;53.60
3699;DHT22;1865;50.918;7.092;2022-10-10T01:41:35;11.70;53.50
3699;DHT22;1865;50.918;7.092;2022-10-10T01:44:03;11.70;53.40
3699;DHT22;1865;50.918;7.092;2022-10-10T01:46:31;11.80;53.60
3699;DHT22;1865;50.918;7.092;2022-10-10T01:48:57;11.80;53.70
3699;DHT22;1865;50.918;7.092;2022-10-10T01:54:39;11.80;53.30
3699;DHT22;1865;50.918;7.092;2022-10-10T01:57:38;11.90;53.80
3699;DHT22;1865;50.918;7.092;2022-10-10T02:00:09;11.90;54.00
3699;DHT22;1865;50.918;7.092;2022-10-10T02:02:38;11.90;54.20
3699;DHT22;1865;50.918;7.092;2022-10-10T02:08:07;12.00;54.30
3699;DHT22;1865;50.918;7.092;2022-10-10T02:10:43;12.10;54.20
3699;DHT22;1865;50.918;7.092;2022-10-10T02:13:11;12.20;54.00
3699;DHT22;1865;50.918;7.092;2022-10-10T02:15:41;12.30;54.30
3699;DHT22;1865;50.918;7.092;2022-10-10T02:18:08;12.30;54.30
3699;DHT22;1865;50.918;7.092;2022-10-10T02:20:36;12.30;54.30
3699;DHT22;1865;50.918;7.092;2022-10-10T02:23:03;12.30;54.50
3699;DHT22;1865;50.918;7.092;2022-10-10T02:25:32;12.30;54.30
3699;DHT22;1865;50.918;7.092;2022-10-10T02:28:20;12.30;54.00
3699;DHT22;1865;50.918;7.092;2022-10-10T02:30:49;12.30;53.80
3699;DHT22;1865;50.918;7.092;2022-10-10T02:33:19;12.30;53.80
3699;DHT22;1865;50.918;7.092;2022-10-10T02:35:47;12.30;53.80
3699;DHT22;1865;50.918;7.092;2022-10-10T02:38:15;12.30;53.70
3699;DHT22;1865;50.918;7.092;2022-10-10T02:40:45;12.20;53.60
3699;DHT22;1865;50.918;7.092;2022-10-10T02:43:12;12.20;53.50
3699;DHT22;1865;50.918;7.092;2022-10-10T02:45:40;12.20;53.50
3699;DHT22;1865;50.918;7.092;2022-10-10T02:48:07;12.20;53.50
3699;DHT22;1865;50.918;7.092;2022-10-10T02:50:33;12.10;53.70
3699;DHT22;1865;50.918;7.092;2022-10-10T02:52:59;12.20;53.80
3699;DHT22;1865;50.918;7.092;2022-10-10T02:55:24;12.20;53.60
3699;DHT22;1865;50.918;7.092;2022-10-10T02:57:50;12.10;53.90
3699;DHT22;1865;50.918;7.092;2022-10-10T03:00:17;12.20;54.10
3699;DHT22;1865;50.918;7.092;2022-10-10T03:02:42;12.30;54.00
3699;DHT22;1865;50.918;7.092;2022-10-10T03:05:08;12.30;53.60
3699;DHT22;1865;50.918;7.092;2022-10-10T03:07:35;12.40;53.40
3699;DHT22;1865;50.918;7.092;2022-10-10T03:10:00;12.40;53.30
3699;DHT22;1865;50.918;7.092;2022-10-10T03:12:26;12.40;53.30
3699;DHT22;1865;50.918;7.092;2022-10-10T03:14:51;12.50;53.20
3699;DHT22;1865;50.918;7.092;2022-10-10T03:17:17;12.50;53.10
3699;DHT22;1865;50.918;7.092;2022-10-10T03:19:43;12.50;53.40
3699;DHT22;1865;50.918;7.092;2022-10-10T03:22:08;12.50;53.10
3699;DHT22;1865;50.918;7.092;2022-10-10T03:24:34;12.50;53.30
3699;DHT22;1865;50.918;7.092;2022-10-10T03:26:59;12.50;53.40
3699;DHT22;1865;50.918;7.092;2022-10-10T03:29:25;12.50;53.50
3699;DHT22;1865;50.918;7.092;2022-10-10T03:31:51;12.50;53.40
3699;DHT22;1865;50.918;7.092;2022-10-10T03:34:16;12.50;53.30
3699;DHT22;1865;50.918;7.092;2022-10-10T03:36:42;12.50;53.60
3699;DHT22;1865;50.918;7.092;2022-10-10T03:39:08;12.50;53.70
3699;DHT22;1865;50.918;7.092;2022-10-10T03:41:34;12.50;53.60
3699;DHT22;1865;50.918;7.092;2022-10-10T03:44:00;12.50;53.60
3699;DHT22;1865;50.918;7.092;2022-10-10T03:46:26;12.60;53.50
3699;DHT22;1865;50.918;7.092;2022-10-10T03:48:51;12.60;53.10
3699;DHT22;1865;50.918;7.092;2022-10-10T03:51:17;12.60;53.00
3699;DHT22;1865;50.918;7.092;2022-10-10T03:53:43;12.60;53.10
3699;DHT22;1865;50.918;7.092;2022-10-10T03:56:08;12.50;53.30
3699;DHT22;1865;50.918;7.092;2022-10-10T03:58:34;12.60;53.50
3699;DHT22;1865;50.918;7.092;2022-10-10T04:01:01;12.60;53.40
3699;DHT22;1865;50.918;7.092;2022-10-10T04:03:27;12.60;53.60
3699;DHT22;1865;50.918;7.092;2022-10-10T04:05:53;12.60;53.60
3699;DHT22;1865;50.918;7.092;2022-10-10T04:08:19;12.60;54.40
3699;DHT22;1865;50.918;7.092;2022-10-10T04:10:49;12.60;53.50
3699;DHT22;1865;50.918;7.092;2022-10-10T04:13:16;12.60;53.80
3699;DHT22;1865;50.918;7.092;2022-10-10T04:15:41;12.60;53.60
3699;DHT22;1865;50.918;7.092;2022-10-10T04:18:09;12.70;53.60
3699;DHT22;1865;50.918;7.092;2022-10-10T04:20:35;12.70;53.90
3699;DHT22;1865;50.918;7.092;2022-10-10T04:23:01;12.70;53.80
3699;DHT22;1865;50.918;7.092;2022-10-10T04:25:36;12.80;53.60
3699;DHT22;1865;50.918;7.092;2022-10-10T04:28:02;12.70;53.60
3699;DHT22;1865;50.918;7.092;2022-10-10T04:30:32;12.70;53.60
3699;DHT22;1865;50.918;7.092;2022-10-10T04:32:58;12.70;53.90
3699;DHT22;1865;50.918;7.092;2022-10-10T04:35:24;12.70;53.70
3699;DHT22;1865;50.918;7.092;2022-10-10T04:37:50;12.70;53.80
3699;DHT22;1865;50.918;7.092;2022-10-10T04:40:15;12.70;54.20
3699;DHT22;1865;50.918;7.092;2022-10-10T04:42:41;12.70;53.80
3699;DHT22;1865;50.918;7.092;2022-10-10T04:45:09;12.70;53.90
3699;DHT22;1865;50.918;7.092;2022-10-10T04:47:34;12.70;54.00
3699;DHT22;1865;50.918;7.092;2022-10-10T04:50:00;12.80;53.80
3699;DHT22;1865;50.918;7.092;2022-10-10T04:52:26;12.70;54.00
3699;DHT22;1865;50.918;7.092;2022-10-10T04:54:51;12.70;53.90
3699;DHT22;1865;50.918;7.092;2022-10-10T04:57:17;12.60;54.20
3699;DHT22;1865;50.918;7.092;2022-10-10T04:59:42;12.60;54.20
3699;DHT22;1865;50.918;7.092;2022-10-10T05:02:08;12.60;54.70
3699;DHT22;1865;50.918;7.092;2022-10-10T05:04:34;12.60;54.40
3699;DHT22;1865;50.918;7.092;2022-10-10T05:07:00;12.60;54.30
3699;DHT22;1865;50.918;7.092;2022-10-10T05:09:27;12.70;54.50
3699;DHT22;1865;50.918;7.092;2022-10-10T05:11:52;12.70;54.40
3699;DHT22;1865;50.918;7.092;2022-10-10T05:14:18;12.70;54.50
3699;DHT22;1865;50.918;7.092;2022-10-10T05:16:43;12.70;54.50
3699;DHT22;1865;50.918;7.092;2022-10-10T05:19:10;12.70;54.50
3699;DHT22;1865;50.918;7.092;2022-10-10T05:21:36;12.70;54.40
3699;DHT22;1865;50.918;7.092;2022-10-10T05:24:02;12.60;54.60
3699;DHT22;1865;50.918;7.092;2022-10-10T05:26:27;12.70;54.80
3699;DHT22;1865;50.918;7.092;2022-10-10T05:28:53;12.70;54.70
3699;DHT22;1865;50.918;7.092;2022-10-10T05:31:19;12.70;54.80
3699;DHT22;1865;50.918;7.092;2022-10-10T05:33:45;12.70;55.00
3699;DHT22;1865;50.918;7.092;2022-10-10T05:36:12;12.80;54.70
3699;DHT22;1865;50.918;7.092;2022-10-10T05:38:40;12.80;54.30
3699;DHT22;1865;50.918;7.092;2022-10-10T05:41:07;12.80;54.60
3699;DHT22;1865;50.918;7.092;2022-10-10T05:43:33;12.80;54.60
3699;DHT22;1865;50.918;7.092;2022-10-10T05:45:59;12.70;54.70
3699;DHT22;1865;50.918;7.092;2022-10-10T05:48:25;12.80;54.40
3699;DHT22;1865;50.918;7.092;2022-10-10T05:50:53;12.70;54.80
3699;DHT22;1865;50.918;7.092;2022-10-10T05:53:21;12.70;54.70
3699;DHT22;1865;50.918;7.092;2022-10-10T05:55:47;12.70;55.00
3699;DHT22;1865;50.918;7.092;2022-10-10T05:58:14;12.60;55.00
3699;DHT22;1865;50.918;7.092;2022-10-10T06:00:41;12.60;55.10
3699;DHT22;1865;50.918;7.092;2022-10-10T06:03:07;12.50;55.10
3699;DHT22;1865;50.918;7.092;2022-10-10T06:05:36;12.60;55.20
3699;DHT22;1865;50.918;7.092;2022-10-10T06:08:07;12.60;55.40
3699;DHT22;1865;50.918;7.092;2022-10-10T06:10:37;12.70;55.10
3699;DHT22;1865;50.918;7.092;2022-10-10T06:13:03;12.70;55.20
3699;DHT22;1865;50.918;7.092;2022-10-10T06:15:28;12.70;55.00
3699;DHT22;1865;50.918;7.092;2022-10-10T06:17:54;12.70;55.20
3699;DHT22;1865;50.918;7.092;2022-10-10T06:20:20;12.70;55.20
3699;DHT22;1865;50.918;7.092;2022-10-10T06:22:45;12.70;55.30
3699;DHT22;1865;50.918;7.092;2022-10-10T06:25:11;12.80;55.30
3699;DHT22;1865;50.918;7.092;2022-10-10T06:27:37;12.90;55.10
3699;DHT22;1865;50.918;7.092;2022-10-10T06:30:05;12.90;54.90
3699;DHT22;1865;50.918;7.092;2022-10-10T06:32:30;13.00;54.80
3699;DHT22;1865;50.918;7.092;2022-10-10T06:34:56;13.00;54.50
3699;DHT22;1865;50.918;7.092;2022-10-10T06:37:21;13.00;54.60
3699;DHT22;1865;50.918;7.092;2022-10-10T06:39:49;13.10;54.80
3699;DHT22;1865;50.918;7.092;2022-10-10T06:42:14;13.20;54.70
3699;DHT22;1865;50.918;7.092;2022-10-10T06:44:40;13.20;54.70
3699;DHT22;1865;50.918;7.092;2022-10-10T06:47:06;13.20;54.80
3699;DHT22;1865;50.918;7.092;2022-10-10T06:49:32;13.30;54.70
3699;DHT22;1865;50.918;7.092;2022-10-10T06:51:58;13.30;54.70
3699;DHT22;1865;50.918;7.092;2022-10-10T06:54:23;13.40;55.30
3699;DHT22;1865;50.918;7.092;2022-10-10T06:56:49;13.50;54.40
3699;DHT22;1865;50.918;7.092;2022-10-10T06:59:16;13.60;54.30
3699;DHT22;1865;50.918;7.092;2022-10-10T07:01:44;13.60;54.10
3699;DHT22;1865;50.918;7.092;2022-10-10T07:04:10;13.70;54.20
3699;DHT22;1865;50.918;7.092;2022-10-10T07:06:36;13.80;54.00
3699;DHT22;1865;50.918;7.092;2022-10-10T07:09:02;13.90;53.90
3699;DHT22;1865;50.918;7.092;2022-10-10T07:11:28;14.00;53.80
3699;DHT22;1865;50.918;7.092;2022-10-10T07:13:54;14.00;53.50
3699;DHT22;1865;50.918;7.092;2022-10-10T07:16:20;14.10;53.50
3699;DHT22;1865;50.918;7.092;2022-10-10T07:18:47;14.20;53.50
3699;DHT22;1865;50.918;7.092;2022-10-10T07:21:13;14.40;53.30
3699;DHT22;1865;50.918;7.092;2022-10-10T07:23:38;14.50;53.00
3699;DHT22;1865;50.918;7.092;2022-10-10T07:26:07;14.60;52.60
3699;DHT22;1865;50.918;7.092;2022-10-10T07:28:33;14.70;52.60
3699;DHT22;1865;50.918;7.092;2022-10-10T07:31:05;14.90;52.60
3699;DHT22;1865;50.918;7.092;2022-10-10T07:33:44;15.00;52.10
3699;DHT22;1865;50.918;7.092;2022-10-10T07:36:10;15.10;52.20
3699;DHT22;1865;50.918;7.092;2022-10-10T07:38:36;15.20;51.80
3699;DHT22;1865;50.918;7.092;2022-10-10T07:41:12;15.20;51.90
3699;DHT22;1865;50.918;7.092;2022-10-10T07:43:38;15.30;52.20
3699;DHT22;1865;50.918;7.092;2022-10-10T07:46:11;15.40;52.20
3699;DHT22;1865;50.918;7.092;2022-10-10T07:48:38;15.50;51.80
3699;DHT22;1865;50.918;7.092;2022-10-10T07:51:05;15.70;51.80
3699;DHT22;1865;50.918;7.092;2022-10-10T07:53:31;15.80;51.60
3699;DHT22;1865;50.918;7.092;2022-10-10T07:55:57;15.80;51.60
3699;DHT22;1865;50.918;7.092;2022-10-10T07:58:23;15.90;51.90
3699;DHT22;1865;50.918;7.092;2022-10-10T08:00:50;16.10;51.50
3699;DHT22;1865;50.918;7.092;2022-10-10T08:03:25;16.20;51.30
3699;DHT22;1865;50.918;7.092;2022-10-10T08:05:51;16.30;51.20
3699;DHT22;1865;50.918;7.092;2022-10-10T08:08:16;16.30;51.20
3699;DHT22;1865;50.918;7.092;2022-10-10T08:10:42;16.50;51.00
3699;DHT22;1865;50.918;7.092;2022-10-10T08:13:08;16.60;50.70
3699;DHT22;1865;50.918;7.092;2022-10-10T08:15:34;16.70;50.90
3699;DHT22;1865;50.918;7.092;2022-10-10T08:17:59;17.00;50.20
3699;DHT22;1865;50.918;7.092;2022-10-10T08:20:25;17.00;50.00
3699;DHT22;1865;50.918;7.092;2022-10-10T08:22:50;17.10;49.80
3699;DHT22;1865;50.918;7.092;2022-10-10T08:25:17;17.20;49.40
3699;DHT22;1865;50.918;7.092;2022-10-10T08:27:43;17.30;49.80
3699;DHT22;1865;50.918;7.092;2022-10-10T08:30:08;17.50;49.50
3699;DHT22;1865;50.918;7.092;2022-10-10T08:32:35;17.90;48.70
3699;DHT22;1865;50.918;7.092;2022-10-10T08:35:01;18.00;48.10
3699;DHT22;1865;50.918;7.092;2022-10-10T08:37:26;18.10;47.90
3699;DHT22;1865;50.918;7.092;2022-10-10T08:39:53;18.20;47.70
3699;DHT22;1865;50.918;7.092;2022-10-10T08:42:30;18.20;47.50
3699;DHT22;1865;50.918;7.092;2022-10-10T08:45:01;18.20;47.90
3699;DHT22;1865;50.918;7.092;2022-10-10T08:50:19;18.10;47.60
3699;DHT22;1865;50.918;7.092;2022-10-10T08:53:26;18.00;48.20
3699;DHT22;1865;50.918;7.092;2022-10-10T08:55:53;18.10;47.80
3699;DHT22;1865;50.918;7.092;2022-10-10T08:58:25;17.90;48.30
3699;DHT22;1865;50.918;7.092;2022-10-10T09:03:40;18.20;48.10
3699;DHT22;1865;50.918;7.092;2022-10-10T09:14:41;18.60;46.70
3699;DHT22;1865;50.918;7.092;2022-10-10T09:17:35;18.60;47.20
3699;DHT22;1865;50.918;7.092;2022-10-10T09:20:19;18.60;47.60
3699;DHT22;1865;50.918;7.092;2022-10-10T09:22:58;18.70;47.70
3699;DHT22;1865;50.918;7.092;2022-10-10T09:25:37;18.80;47.60
3699;DHT22;1865;50.918;7.092;2022-10-10T09:28:06;18.90;47.90
3699;DHT22;1865;50.918;7.092;2022-10-10T09:30:36;19.00;47.50
3699;DHT22;1865;50.918;7.092;2022-10-10T09:33:34;19.00;47.90
3699;DHT22;1865;50.918;7.092;2022-10-10T09:36:03;19.10;47.20
3699;DHT22;1865;50.918;7.092;2022-10-10T09:39:44;19.20;47.70
3699;DHT22;1865;50.918;7.092;2022-10-10T09:44:14;19.30;47.20
3699;DHT22;1865;50.918;7.092;2022-10-10T09:46:40;19.40;46.90
3699;DHT22;1865;50.918;7.092;2022-10-10T09:49:08;19.50;47.80
3699;DHT22;1865;50.918;7.092;2022-10-10T09:51:37;19.60;47.20
3699;DHT22;1865;50.918;7.092;2022-10-10T09:54:04;19.60;46.90
3699;DHT22;1865;50.918;7.092;2022-10-10T09:56:37;19.70;46.90
3699;DHT22;1865;50.918;7.092;2022-10-10T09:59:05;19.80;46.80
3699;DHT22;1865;50.918;7.092;2022-10-10T10:02:02;19.90;46.80
3699;DHT22;1865;50.918;7.092;2022-10-10T10:04:31;20.10;46.10
3699;DHT22;1865;50.918;7.092;2022-10-10T10:07:27;20.00;45.50
3699;DHT22;1865;50.918;7.092;2022-10-10T10:09:54;20.10;45.80
3699;DHT22;1865;50.918;7.092;2022-10-10T10:12:24;20.30;45.60
3699;DHT22;1865;50.918;7.092;2022-10-10T10:14:58;20.40;45.80
3699;DHT22;1865;50.918;7.092;2022-10-10T10:17:25;20.60;46.00
3699;DHT22;1865;50.918;7.092;2022-10-10T10:19:50;20.60;44.70
3699;DHT22;1865;50.918;7.092;2022-10-10T10:25:27;20.80;44.60
3699;DHT22;1865;50.918;7.092;2022-10-10T10:27:46;20.90;44.40
3699;DHT22;1865;50.918;7.092;2022-10-10T10:30:23;21.10;44.10
3699;DHT22;1865;50.918;7.092;2022-10-10T10:32:59;20.90;43.60
3699;DHT22;1865;50.918;7.092;2022-10-10T10:38:24;21.10;43.70
3699;DHT22;1865;50.918;7.092;2022-10-10T10:41:14;21.10;43.70
3699;DHT22;1865;50.918;7.092;2022-10-10T10:43:59;21.20;43.60
3699;DHT22;1865;50.918;7.092;2022-10-10T10:49:28;21.40;42.90
3699;DHT22;1865;50.918;7.092;2022-10-10T11:01:01;21.10;43.40
3699;DHT22;1865;50.918;7.092;2022-10-10T11:03:49;21.30;43.40
3699;DHT22;1865;50.918;7.092;2022-10-10T11:06:57;21.40;43.90
3699;DHT22;1865;50.918;7.092;2022-10-10T11:09:35;21.50;43.10
3699;DHT22;1865;50.918;7.092;2022-10-10T11:15:00;21.80;42.60
3699;DHT22;1865;50.918;7.092;2022-10-10T11:17:34;21.80;42.10
3699;DHT22;1865;50.918;7.092;2022-10-10T11:22:51;22.00;42.50
3699;DHT22;1865;50.918;7.092;2022-10-10T11:25:53;22.00;41.80
3699;DHT22;1865;50.918;7.092;2022-10-10T11:28:39;22.10;41.50
3699;DHT22;1865;50.918;7.092;2022-10-10T11:31:14;22.20;41.30
3699;DHT22;1865;50.918;7.092;2022-10-10T11:33:44;22.30;41.10
3699;DHT22;1865;50.918;7.092;2022-10-10T11:36:36;22.40;40.30
3699;DHT22;1865;50.918;7.092;2022-10-10T11:39:15;22.50;39.90
3699;DHT22;1865;50.918;7.092;2022-10-10T11:42:05;22.50;39.50
3699;DHT22;1865;50.918;7.092;2022-10-10T11:44:37;22.50;39.80
3699;DHT22;1865;50.918;7.092;2022-10-10T11:47:24;22.60;40.50
3699;DHT22;1865;50.918;7.092;2022-10-10T11:52:59;22.70;40.20
3699;DHT22;1865;50.918;7.092;2022-10-10T11:58:33;22.90;39.70
3699;DHT22;1865;50.918;7.092;2022-10-10T12:01:17;22.90;39.30
3699;DHT22;1865;50.918;7.092;2022-10-10T12:03:43;22.90;39.70
3699;DHT22;1865;50.918;7.092;2022-10-10T12:06:20;22.90;40.20
3699;DHT22;1865;50.918;7.092;2022-10-10T12:11:41;22.90;39.40
3699;DHT22;1865;50.918;7.092;2022-10-10T12:14:09;23.00;39.10
3699;DHT22;1865;50.918;7.092;2022-10-10T12:16:38;23.10;39.20
3699;DHT22;1865;50.918;7.092;2022-10-10T12:19:21;22.90;39.50
3699;DHT22;1865;50.918;7.092;2022-10-10T12:22:06;23.00;39.50
3699;DHT22;1865;50.918;7.092;2022-10-10T12:25:03;23.10;39.50
3699;DHT22;1865;50.918;7.092;2022-10-10T12:27:28;23.20;40.00
3699;DHT22;1865;50.918;7.092;2022-10-10T12:32:44;23.30;40.30
3699;DHT22;1865;50.918;7.092;2022-10-10T12:35:46;23.30;39.70
3699;DHT22;1865;50.918;7.092;2022-10-10T12:38:24;23.30;39.80
3699;DHT22;1865;50.918;7.092;2022-10-10T12:43:35;23.00;39.20
3699;DHT22;1865;50.918;7.092;2022-10-10T12:49:23;23.10;40.10
3699;DHT22;1865;50.918;7.092;2022-10-10T12:54:29;23.20;40.00
3699;DHT22;1865;50.918;7.092;2022-10-10T12:57:06;23.50;39.70
3699;DHT22;1865;50.918;7.092;2022-10-10T12:59:34;23.50;39.10
3699;DHT22;1865;50.918;7.092;2022-10-10T13:02:05;23.60;39.80
3699;DHT22;1865;50.918;7.092;2022-10-10T13:04:31;23.60;39.40
3699;DHT22;1865;50.918;7.092;2022-10-10T13:07:00;23.60;38.90
3699;DHT22;1865;50.918;7.092;2022-10-10T13:09:31;23.60;38.90
3699;DHT22;1865;50.918;7.092;2022-10-10T13:12:04;23.60;39.10
3699;DHT22;1865;50.918;7.092;2022-10-10T13:14:39;23.50;38.70
3699;DHT22;1865;50.918;7.092;2022-10-10T13:19:52;23.50;38.50
3699;DHT22;1865;50.918;7.092;2022-10-10T13:22:19;23.80;38.10
3699;DHT22;1865;50.918;7.092;2022-10-10T13:24:45;24.10;37.80
3699;DHT22;1865;50.918;7.092;2022-10-10T13:27:20;24.50;36.90
3699;DHT22;1865;50.918;7.092;2022-10-10T13:29:48;24.80;35.60
3699;DHT22;1865;50.918;7.092;2022-10-10T13:32:18;25.00;35.50
3699;DHT22;1865;50.918;7.092;2022-10-10T13:34:48;24.90;36.20
3699;DHT22;1865;50.918;7.092;2022-10-10T13:37:17;24.70;35.50
3699;DHT22;1865;50.918;7.092;2022-10-10T13:39:43;24.50;37.20
3699;DHT22;1865;50.918;7.092;2022-10-10T13:42:35;24.10;36.80
3699;DHT22;1865;50.918;7.092;2022-10-10T13:50:32;24.20;37.40
3699;DHT22;1865;50.918;7.092;2022-10-10T13:53:50;24.40;37.30
3699;DHT22;1865;50.918;7.092;2022-10-10T13:56:27;24.50;36.70
3699;DHT22;1865;50.918;7.092;2022-10-10T13:59:06;24.50;36.40
3699;DHT22;1865;50.918;7.092;2022-10-10T14:01:44;24.60;36.60
3699;DHT22;1865;50.918;7.092;2022-10-10T14:04:23;24.60;36.30
3699;DHT22;1865;50.918;7.092;2022-10-10T14:06:59;24.70;36.30
3699;DHT22;1865;50.918;7.092;2022-10-10T14:10:08;24.90;37.00
3699;DHT22;1865;50.918;7.092;2022-10-10T14:12:41;24.80;35.70
3699;DHT22;1865;50.918;7.092;2022-10-10T14:18:25;24.40;36.20
3699;DHT22;1865;50.918;7.092;2022-10-10T14:20:53;24.10;35.60
3699;DHT22;1865;50.918;7.092;2022-10-10T14:23:20;24.20;36.60
3699;DHT22;1865;50.918;7.092;2022-10-10T14:25:47;24.40;36.50
3699;DHT22;1865;50.918;7.092;2022-10-10T14:28:23;24.60;36.70
3699;DHT22;1865;50.918;7.092;2022-10-10T14:30:49;24.70;36.80
3699;DHT22;1865;50.918;7.092;2022-10-10T14:33:16;24.90;36.70
3699;DHT22;1865;50.918;7.092;2022-10-10T14:35:45;24.80;35.90
3699;DHT22;1865;50.918;7.092;2022-10-10T14:38:12;24.80;36.40
3699;DHT22;1865;50.918;7.092;2022-10-10T14:40:40;24.80;36.70
3699;DHT22;1865;50.918;7.092;2022-10-10T14:43:05;24.60;36.70
3699;DHT22;1865;50.918;7.092;2022-10-10T14:45:31;24.60;37.40
3699;DHT22;1865;50.918;7.092;2022-10-10T14:47:57;24.50;38.40
3699;DHT22;1865;50.918;7.092;2022-10-10T14:50:26;24.40;38.20
3699;DHT22;1865;50.918;7.092;2022-10-10T14:52:52;24.10;38.10
3699;DHT22;1865;50.918;7.092;2022-10-10T14:55:18;23.90;37.80
3699;DHT22;1865;50.918;7.092;2022-10-10T14:57:44;23.80;38.40
3699;DHT22;1865;50.918;7.092;2022-10-10T15:00:14;23.80;39.10
3699;DHT22;1865;50.918;7.092;2022-10-10T15:02:40;23.80;39.10
3699;DHT22;1865;50.918;7.092;2022-10-10T15:05:06;23.70;39.00
3699;DHT22;1865;50.918;7.092;2022-10-10T15:07:31;23.60;39.40
3699;DHT22;1865;50.918;7.092;2022-10-10T15:09:57;23.50;39.80
3699;DHT22;1865;50.918;7.092;2022-10-10T15:12:24;23.50;40.10
3699;DHT22;1865;50.918;7.092;2022-10-10T15:14:50;23.40;40.50
3699;DHT22;1865;50.918;7.092;2022-10-10T15:17:16;23.30;41.10
3699;DHT22;1865;50.918;7.092;2022-10-10T15:19:42;23.30;41.40
3699;DHT22;1865;50.918;7.092;2022-10-10T15:22:07;23.20;41.80
3699;DHT22;1865;50.918;7.092;2022-10-10T15:24:34;23.10;42.20
3699;DHT22;1865;50.918;7.092;2022-10-10T15:27:00;23.00;42.40
3699;DHT22;1865;50.918;7.092;2022-10-10T15:29:26;22.90;43.20
3699;DHT22;1865;50.918;7.092;2022-10-10T15:31:51;23.00;43.30
3699;DHT22;1865;50.918;7.092;2022-10-10T15:34:19;22.90;43.80
3699;DHT22;1865;50.918;7.092;2022-10-10T15:36:48;22.80;43.40
3699;DHT22;1865;50.918;7.092;2022-10-10T15:39:14;22.70;42.20
3699;DHT22;1865;50.918;7.092;2022-10-10T15:41:40;22.70;41.80
3699;DHT22;1865;50.918;7.092;2022-10-10T15:44:12;22.60;41.00
3699;DHT22;1865;50.918;7.092;2022-10-10T15:46:38;22.60;41.30
3699;DHT22;1865;50.918;7.092;2022-10-10T15:49:05;22.70;41.50
3699;DHT22;1865;50.918;7.092;2022-10-10T15:51:31;22.80;41.90
3699;DHT22;1865;50.918;7.092;2022-10-10T15:53:58;22.70;42.70
3699;DHT22;1865;50.918;7.092;2022-10-10T15:56:23;22.60;43.40
3699;DHT22;1865;50.918;7.092;2022-10-10T15:58:58;22.60;44.60
3699;DHT22;1865;50.918;7.092;2022-10-10T16:01:24;22.30;43.40
3699;DHT22;1865;50.918;7.092;2022-10-10T16:03:50;22.30;44.00
3699;DHT22;1865;50.918;7.092;2022-10-10T16:06:18;22.30;44.20
3699;DHT22;1865;50.918;7.092;2022-10-10T16:08:46;22.30;44.00
3699;DHT22;1865;50.918;7.092;2022-10-10T16:11:14;22.30;44.20
3699;DHT22;1865;50.918;7.092;2022-10-10T16:13:41;22.30;44.20
3699;DHT22;1865;50.918;7.092;2022-10-10T16:16:09;22.30;44.60
3699;DHT22;1865;50.918;7.092;2022-10-10T16:18:37;22.10;44.70
3699;DHT22;1865;50.918;7.092;2022-10-10T16:21:15;22.00;44.30
3699;DHT22;1865;50.918;7.092;2022-10-10T16:23:44;22.00;44.40
3699;DHT22;1865;50.918;7.092;2022-10-10T16:26:15;22.10;44.40
3699;DHT22;1865;50.918;7.092;2022-10-10T16:28:42;22.00;44.00
3699;DHT22;1865;50.918;7.092;2022-10-10T16:31:11;21.90;44.10
3699;DHT22;1865;50.918;7.092;2022-10-10T16:33:39;21.90;44.00
3699;DHT22;1865;50.918;7.092;2022-10-10T16:38:39;21.90;43.50
3699;DHT22;1865;50.918;7.092;2022-10-10T16:41:06;21.90;43.40
3699;DHT22;1865;50.918;7.092;2022-10-10T16:43:36;21.90;43.40
3699;DHT22;1865;50.918;7.092;2022-10-10T16:46:03;21.90;43.30
3699;DHT22;1865;50.918;7.092;2022-10-10T16:48:34;21.90;43.30
3699;DHT22;1865;50.918;7.092;2022-10-10T16:51:07;21.90;43.90
3699;DHT22;1865;50.918;7.092;2022-10-10T16:53:34;21.90;43.70
3699;DHT22;1865;50.918;7.092;2022-10-10T16:56:02;21.70;44.20
3699;DHT22;1865;50.918;7.092;2022-10-10T16:58:28;21.80;44.10
3699;DHT22;1865;50.918;7.092;2022-10-10T17:00:55;21.70;44.40
3699;DHT22;1865;50.918;7.092;2022-10-10T17:03:23;21.70;44.40
3699;DHT22;1865;50.918;7.092;2022-10-10T17:06:11;21.70;44.60
3699;DHT22;1865;50.918;7.092;2022-10-10T17:08:37;21.70;44.40
3699;DHT22;1865;50.918;7.092;2022-10-10T17:11:03;21.70;44.60
3699;DHT22;1865;50.918;7.092;2022-10-10T17:13:31;21.70;44.90
3699;DHT22;1865;50.918;7.092;2022-10-10T17:15:58;21.60;44.70
3699;DHT22;1865;50.918;7.092;2022-10-10T17:18:27;21.60;44.80
3699;DHT22;1865;50.918;7.092;2022-10-10T17:20:53;21.60;44.80
3699;DHT22;1865;50.918;7.092;2022-10-10T17:23:20;21.50;45.10
3699;DHT22;1865;50.918;7.092;2022-10-10T17:25:46;21.50;45.10
3699;DHT22;1865;50.918;7.092;2022-10-10T17:28:12;21.50;45.20
3699;DHT22;1865;50.918;7.092;2022-10-10T17:30:46;21.50;45.40
3699;DHT22;1865;50.918;7.092;2022-10-10T17:33:13;21.40;45.30
3699;DHT22;1865;50.918;7.092;2022-10-10T17:35:41;21.30;45.20
3699;DHT22;1865;50.918;7.092;2022-10-10T17:38:07;21.20;45.30
3699;DHT22;1865;50.918;7.092;2022-10-10T17:40:33;21.20;45.50
3699;DHT22;1865;50.918;7.092;2022-10-10T17:42:59;21.10;45.60
3699;DHT22;1865;50.918;7.092;2022-10-10T17:45:25;21.10;45.80
3699;DHT22;1865;50.918;7.092;2022-10-10T17:47:51;21.10;45.90
3699;DHT22;1865;50.918;7.092;2022-10-10T17:50:17;21.10;45.90